SBOSBO NAP / LIRN
Speedbird OnlineSpeedbird Online NAP / LIRN

Naples International Airport
20:54 18.8°C

Location Naples, Italy
Latitude: 40.886002
Longitude: 14.2908
Web Airport Website | Wikipedia
Altitude 90 Meter / 294 Feet
Distance 1,601 KM / 995 Miles
from London.
Time Zone UTC +2 hours (Europe/Rome)
Codes IATA: NAP
ICAO: LIRN
Currency £1 equals EUR 1.12
Runways
RunwayLength (m)Surface
062628Asphalt
242628Asphalt
Radio
TypeDescriptionFrequency
APPNAPOLI RADAR124.35
ATISATIS135.975
DIRNAPOLI DIRECTOR120.95
GCCDNAPOLI GND CLNC DEL121.9
OPSUSN BASE OPS118.275
PMSVPMSV METRO34.1
POSTATOC118.275
TWRNAPOLI TWR118.5
Live ATC
METAR LIRN 241820Z 24003KT 200V270 CAVOK 19/09 Q1018 NOSIG
TAF TAF LIRN 241700Z 2418/2518 22007KT 9999 SCT060 TEMPO 2504/2512 TSRA TEMPO 2512/2518 SHRA
Weather As Of 24 Sep 2022 20:54
Description Clear sky
Wind 6 km/h from South-West (240°)
Cloud Cover 0%
Precipitation Rain: none, Snow: none
Sunrise 06:52
Sunset 18:57
Lounges Pearl lounge, MAIN TERMINAL
Airport VIP Lounge , Main terminal
Rotations During the last 90 days there were
235 flights from LHR
233 flights to LHR


© 2017-2022 Speedbird Online